Grattan, Nebraska
Current Conditions -  °F | °C
As of 7:15 AM on Thursday 18 Dec 2014 (Local Time) from KONL Reporting Station
Overcast Overcast  
Wind Chill: 23°   Ceiling: 1800
Heat Index: 23°   Visibility: 10mi
Dew Point: 22°   Wind: 3mph
Humidity: 96%   Direction: 150°SSE
Pressure: 30.14"   Gusts: NA
Location:  42.6164°N, 98.6183°W
Report Text: KONL 181315Z AUTO 15003KT 10SM OVC018 M05/M06 A3014 RMK AO2 T10501056
Loading
Personal Weather Stations






























Interactive Weather Map New forecast layout! Learn more

10-Day Weather Forecast

Advertisements
Track Severe Weather on mobile